Time;durP1;ratioP1;P1;durP2;ratioP2;P2;SDS_P1;SDS_P2;PMS_P1;PMS_P2;Temp;Humidity;BMP_temperature;BMP_pressure;BME280_temperature;BME280_humidity;BME280_pressure;Samples;Min_cycle;Max_cycle;Signal;HPM_P1;HPM_P2
2023/03/26 00:03:32;;;;;;;19.10;6.32;;;;;;;6.34;100.00;100124.44;10304600;28;20044;-70
2023/03/26 00:08:29;;;;;;;23.70;6.88;;;;;;;6.35;100.00;100134.19;10304390;28;20040;-70
2023/03/26 00:13:26;;;;;;;21.33;6.18;;;;;;;6.33;100.00;100139.09;10310850;28;20071;-79
2023/03/26 00:18:29;;;;;;;17.33;5.40;;;;;;;6.28;100.00;100147.38;10312191;28;20066;-78
2023/03/26 00:23:27;;;;;;;11.50;5.20;;;;;;;6.21;100.00;100165.97;10308629;28;20068;-78
2023/03/26 00:28:25;;;;;;;18.83;6.57;;;;;;;6.18;100.00;100175.53;10307685;28;20046;-70
2023/03/26 00:33:21;;;;;;;11.65;5.00;;;;;;;6.16;100.00;100172.31;10304103;28;20051;-70
2023/03/26 00:38:19;;;;;;;18.20;6.03;;;;;;;6.17;100.00;100178.53;10302229;28;20327;-77
2023/03/26 00:43:20;;;;;;;17.52;6.03;;;;;;;6.16;100.00;100182.38;10315612;28;20052;-78
2023/03/26 00:48:17;;;;;;;18.23;6.00;;;;;;;6.16;100.00;100190.50;10299029;28;20045;-77
2023/03/26 00:53:15;;;;;;;18.02;6.38;;;;;;;6.18;100.00;100191.03;10305772;28;20136;-77
2023/03/26 00:58:12;;;;;;;17.00;5.75;;;;;;;6.17;100.00;100194.81;10310150;28;20056;-76
2023/03/26 01:03:12;;;;;;;22.73;7.28;;;;;;;6.14;100.00;100200.84;10298154;28;20043;-78
2023/03/26 01:08:43;;;;;;;21.08;6.75;;;;;;;6.17;100.00;100202.97;10304292;28;20090;-70
2023/03/26 01:13:45;;;;;;;15.75;5.47;;;;;;;6.09;100.00;100210.69;10308239;28;20144;-71
2023/03/26 01:18:41;;;;;;;10.17;5.23;;;;;;;6.03;100.00;100222.75;10308659;28;20487;-74
2023/03/26 01:23:50;;;;;;;12.65;4.97;;;;;;;5.96;100.00;100225.03;10295296;28;20048;-71
2023/03/26 01:28:47;;;;;;;16.65;4.95;;;;;;;5.75;100.00;100246.28;10311735;28;20445;-72
2023/03/26 01:33:56;;;;;;;9.75;3.97;;;;;;;5.59;100.00;100245.75;10308418;28;20052;-72
2023/03/26 01:39:47;;;;;;;8.77;4.35;;;;;;;5.47;100.00;100237.22;10300891;28;20451;-80
2023/03/26 01:44:55;;;;;;;8.85;4.65;;;;;;;5.41;100.00;100249.28;10286602;28;20113;-80
2023/03/26 01:49:51;;;;;;;6.22;4.40;;;;;;;5.41;100.00;100250.06;10290996;28;20049;-73
2023/03/26 01:54:49;;;;;;;12.38;4.18;;;;;;;5.31;100.00;100252.91;10301725;28;20037;-73
2023/03/26 01:59:58;;;;;;;10.55;4.72;;;;;;;5.32;100.00;100251.03;10305935;28;20072;-78
2023/03/26 02:05:16;;;;;;;15.63;5.40;;;;;;;5.37;100.00;100253.66;10294435;28;20067;-79
2023/03/26 02:10:24;;;;;;;19.77;5.90;;;;;;;5.39;100.00;100251.47;10296574;28;20044;-73
2023/03/26 02:15:21;;;;;;;19.25;5.72;;;;;;;5.42;100.00;100256.31;10302959;28;20045;-72
2023/03/26 02:20:19;;;;;;;14.60;5.50;;;;;;;5.44;100.00;100243.25;10292731;28;20055;-73
2023/03/26 02:25:18;;;;;;;14.57;5.55;;;;;;;5.40;100.00;100236.81;10298643;28;20063;-75
2023/03/26 02:30:19;;;;;;;14.63;5.65;;;;;;;5.40;100.00;100243.03;10292216;28;20049;-78
2023/03/26 02:35:15;;;;;;;19.30;5.68;;;;;;;5.39;100.00;100251.47;10290708;28;20063;-75
2023/03/26 02:40:12;;;;;;;15.65;6.07;;;;;;;5.39;100.00;100248.75;10299623;28;20053;-79
2023/03/26 02:45:09;;;;;;;15.40;5.57;;;;;;;5.44;100.00;100251.38;10309852;28;20052;-78
2023/03/26 02:50:07;;;;;;;10.50;5.25;;;;;;;5.46;100.00;100257.31;10303732;28;20059;-75
2023/03/26 02:55:04;;;;;;;15.02;5.13;;;;;;;5.36;100.00;100246.63;10297413;28;20087;-78
2023/03/26 03:00:04;;;;;;;14.70;4.50;;;;;;;5.27;100.00;100265.47;10302392;28;20602;-77
2023/03/26 03:05:01;;;;;;;9.93;4.30;;;;;;;5.08;100.00;100257.31;10302003;28;20128;-73
2023/03/26 03:10:01;;;;;;;11.40;5.00;;;;;;;5.05;100.00;100263.31;10299349;28;20053;-74
2023/03/26 03:14:57;;;;;;;11.20;4.72;;;;;;;5.02;100.00;100258.50;10300871;28;20505;-79
2023/03/26 03:19:54;;;;;;;8.73;4.90;;;;;;;4.98;100.00;100257.47;10296129;28;20061;-80
2023/03/26 03:24:56;;;;;;;8.60;4.40;;;;;;;4.95;100.00;100252.63;10301309;28;20499;-79
2023/03/26 03:29:54;;;;;;;11.55;5.75;;;;;;;4.88;100.00;100247.56;10313208;28;20055;-78
2023/03/26 03:34:51;;;;;;;11.77;4.30;;;;;;;4.88;100.00;100257.63;10311828;28;20041;-79
2023/03/26 03:39:47;;;;;;;17.85;5.15;;;;;;;4.91;100.00;100251.59;10304879;28;20049;-78
2023/03/26 03:44:44;;;;;;;10.45;5.22;;;;;;;4.89;100.00;100245.66;10305277;28;20059;-78
2023/03/26 03:49:40;;;;;;;17.52;5.43;;;;;;;4.83;100.00;100256.56;10305232;28;20072;-79
2023/03/26 03:54:37;;;;;;;17.98;5.30;;;;;;;4.74;100.00;100258.31;10315180;28;20117;-79
2023/03/26 03:59:33;;;;;;;17.88;5.63;;;;;;;4.70;100.00;100257.28;10313639;28;20037;-79
2023/03/26 04:04:31;;;;;;;16.73;5.07;;;;;;;4.73;100.00;100261.31;10314029;28;20068;-72
2023/03/26 04:09:28;;;;;;;10.27;4.70;;;;;;;4.73;100.00;100255.88;10305082;28;20041;-72
2023/03/26 04:14:24;;;;;;;20.73;5.90;;;;;;;4.74;100.00;100255.59;10300433;28;20071;-75
2023/03/26 04:19:21;;;;;;;15.07;5.25;;;;;;;4.74;100.00;100252.91;10307146;28;20036;-73
2023/03/26 04:24:18;;;;;;;22.42;7.10;;;;;;;4.68;100.00;100239.72;10307404;28;20087;-74
2023/03/26 04:29:15;;;;;;;13.30;5.30;;;;;;;4.50;100.00;100241.25;10306829;28;20059;-74
2023/03/26 04:34:22;;;;;;;11.07;4.85;;;;;;;4.43;100.00;100236.19;10295186;28;20587;-72
2023/03/26 04:39:28;;;;;;;12.43;4.80;;;;;;;4.40;100.00;100243.00;10297368;28;20463;-70
2023/03/26 04:44:24;;;;;;;13.77;4.80;;;;;;;4.46;100.00;100241.06;10305239;28;20041;-75
2023/03/26 04:49:21;;;;;;;10.23;3.95;;;;;;;4.40;100.00;100237.56;10306656;28;20409;-77
2023/03/26 04:54:21;;;;;;;12.50;4.57;;;;;;;4.46;100.00;100234.84;10302248;28;20143;-76
2023/03/26 04:59:25;;;;;;;10.40;4.07;;;;;;;4.38;100.00;100239.75;10302145;28;20037;-77
2023/03/26 05:04:21;;;;;;;10.52;3.95;;;;;;;4.21;100.00;100234.00;10304737;28;20068;-75
2023/03/26 05:09:18;;;;;;;14.68;5.60;;;;;;;4.05;100.00;100230.66;10300036;28;20046;-76
2023/03/26 05:14:15;;;;;;;18.42;6.75;;;;;;;3.93;100.00;100228.34;10306673;28;20561;-70
2023/03/26 05:19:12;;;;;;;10.63;4.85;;;;;;;3.86;100.00;100243.28;10304322;28;20439;-70
2023/03/26 05:24:08;;;;;;;15.75;5.03;;;;;;;3.89;100.00;100243.50;10308804;28;20045;-70
2023/03/26 05:29:04;;;;;;;7.57;4.68;;;;;;;4.08;100.00;100246.31;10302471;28;20517;-70
2023/03/26 05:34:02;;;;;;;11.13;4.30;;;;;;;4.14;100.00;100244.38;10308136;28;20080;-81
2023/03/26 05:38:58;;;;;;;12.27;4.28;;;;;;;4.24;100.00;100248.88;10308392;28;20040;-80
2023/03/26 05:43:54;;;;;;;9.45;4.13;;;;;;;4.23;100.00;100253.47;10303668;28;20751;-77
2023/03/26 05:48:51;;;;;;;10.70;3.80;;;;;;;4.21;100.00;100258.38;10304576;28;20402;-74
2023/03/26 05:53:48;;;;;;;11.98;5.72;;;;;;;4.26;100.00;100252.91;10291408;28;20045;-76
2023/03/26 05:58:44;;;;;;;10.10;4.45;;;;;;;4.24;100.00;100267.81;10304499;28;20056;-75
2023/03/26 06:03:43;;;;;;;15.13;3.80;;;;;;;4.25;100.00;100266.72;10300642;28;20048;-76
2023/03/26 06:08:49;;;;;;;10.07;4.40;;;;;;;4.35;100.00;100267.41;10302099;28;20063;-76
2023/03/26 06:13:59;;;;;;;9.10;4.55;;;;;;;4.28;100.00;100256.13;10303690;28;20094;-74
2023/03/26 06:18:55;;;;;;;15.88;5.25;;;;;;;4.39;100.00;100268.47;10301311;28;20203;-74
2023/03/26 06:23:53;;;;;;;13.27;6.22;;;;;;;4.36;100.00;100269.06;10308659;28;20052;-74
2023/03/26 06:28:50;;;;;;;9.43;3.92;;;;;;;4.41;100.00;100277.09;10303597;28;20094;-71
2023/03/26 06:33:47;;;;;;;12.82;4.07;;;;;;;4.41;100.00;100279.81;10307382;28;20079;-71
2023/03/26 06:38:44;;;;;;;12.25;4.28;;;;;;;4.51;100.00;100280.78;10308897;28;20052;-72
2023/03/26 06:43:40;;;;;;;18.50;5.03;;;;;;;4.64;100.00;100282.78;10297150;28;20088;-78
2023/03/26 06:48:37;;;;;;;11.98;4.45;;;;;;;4.64;100.00;100291.75;10300023;28;20076;-78
2023/03/26 06:53:34;;;;;;;13.82;4.13;;;;;;;4.66;100.00;100285.22;10286609;28;20040;-78
2023/03/26 06:58:31;;;;;;;22.85;7.47;;;;;;;4.73;100.00;100282.97;10292555;28;20045;-79
2023/03/26 07:03:27;;;;;;;19.52;5.60;;;;;;;4.69;100.00;100290.88;10291645;28;20475;-79
2023/03/26 07:08:23;;;;;;;13.13;4.47;;;;;;;4.65;100.00;100289.84;10305548;28;20506;-77
2023/03/26 07:13:21;;;;;;;11.75;4.20;;;;;;;4.74;100.00;100285.41;10305407;28;20567;-78
2023/03/26 07:18:18;;;;;;;11.82;3.83;;;;;;;4.76;100.00;100277.78;10302787;28;20127;-79
2023/03/26 07:23:18;;;;;;;12.38;4.22;;;;;;;4.83;100.00;100272.03;10311377;28;20055;-76
2023/03/26 07:28:40;;;;;;;25.98;5.47;;;;;;;4.53;100.00;100262.38;10305956;28;20040;-74
2023/03/26 07:34:12;;;;;;;10.25;4.00;;;;;;;4.60;100.00;100268.25;10325737;28;20048;-75
2023/03/26 07:39:46;;;;;;;15.25;4.65;;;;;;;4.63;100.00;100262.22;10255127;28;20076;-73
2023/03/26 07:45:10;;;;;;;;;;;;;;;4.62;100.00;100260.63;10296789;28;20119;-71
2023/03/26 07:50:14;;;;;;;19.57;4.40;;;;;;;4.69;100.00;100271.91;10295274;28;19924;-69
2023/03/26 07:55:16;;;;;;;19.02;5.40;;;;;;;4.77;100.00;100263.16;10296872;28;20574;-70
2023/03/26 08:00:38;;;;;;;16.27;5.28;;;;;;;4.70;100.00;100262.69;10302337;28;20162;-70
2023/03/26 08:05:58;;;;;;;15.43;6.20;;;;;;;4.90;100.00;100271.66;10300836;28;20049;-71
2023/03/26 08:11:33;;;;;;;17.02;5.30;;;;;;;5.23;100.00;100270.66;10304326;28;20048;-69
2023/03/26 08:16:39;;;;;;;12.68;5.88;;;;;;;5.18;100.00;100273.44;10277685;28;20059;-68
2023/03/26 08:22:25;;;;;;;19.70;5.70;;;;;;;5.13;100.00;100275.41;10303772;28;20044;-69
2023/03/26 08:27:38;;;;;;;18.63;5.60;;;;;;;5.28;100.00;100267.88;10284051;28;20050;-69
2023/03/26 08:32:35;;;;;;;12.80;6.63;;;;;;;5.31;100.00;100265.69;10305524;28;20161;-69
2023/03/26 08:37:31;;;;;;;17.35;6.82;;;;;;;5.42;100.00;100264.44;10308357;28;20060;-69
2023/03/26 08:42:58;;;;;;;16.73;5.47;;;;;;;5.59;100.00;100278.28;10304179;28;20053;-69
2023/03/26 08:48:40;;;;;;;20.60;5.88;;;;;;;5.53;100.00;100279.44;10295029;28;20044;-71
2023/03/26 08:53:55;;;;;;;10.57;5.30;;;;;;;5.38;100.00;100266.13;10282343;28;20040;-71
2023/03/26 08:58:57;;;;;;;24.60;6.15;;;;;;;5.53;100.00;100263.19;10311358;28;20540;-70
2023/03/26 09:04:24;;;;;;;15.52;5.53;;;;;;;5.84;100.00;100262.69;10296322;28;20058;-70
2023/03/26 09:09:42;;;;;;;15.45;6.22;;;;;;;5.99;100.00;100259.75;10308536;28;20110;-72
2023/03/26 09:14:59;;;;;;;16.83;6.05;;;;;;;6.51;100.00;100256.88;10312547;28;20087;-72
2023/03/26 09:20:21;;;;;;;18.80;5.45;;;;;;;6.37;100.00;100254.16;10293302;28;20075;-72
2023/03/26 09:25:40;;;;;;;18.00;7.43;;;;;;;6.61;100.00;100251.25;10296782;28;20063;-73
2023/03/26 09:30:55;;;;;;;17.13;5.93;;;;;;;6.89;100.00;100243.88;10294848;28;20033;-72
2023/03/26 09:36:02;;;;;;;23.25;6.65;;;;;;;6.76;100.00;100261.00;10301030;28;20152;-71
2023/03/26 09:41:37;;;;;;;13.75;5.43;;;;;;;6.63;100.00;100261.81;10299675;28;20057;-73
2023/03/26 09:46:51;;;;;;;13.07;6.90;;;;;;;6.43;100.00;100261.13;10303816;28;20049;-71
2023/03/26 09:52:14;;;;;;;11.73;5.78;;;;;;;6.90;100.00;100261.00;10297752;28;20060;-71
2023/03/26 09:57:14;;;;;;;19.05;6.65;;;;;;;7.21;100.00;100274.72;10305055;28;20040;-71
2023/03/26 10:02:43;;;;;;;16.83;5.80;;;;;;;6.69;100.00;100277.72;10308515;28;20048;-72
2023/03/26 10:07:59;;;;;;;14.20;5.78;;;;;;;6.81;100.00;100274.50;10292572;28;20041;-71
2023/03/26 10:13:16;;;;;;;14.20;5.18;;;;;;;8.39;100.00;100277.28;10288512;28;20044;-70
2023/03/26 10:18:28;;;;;;;11.43;5.78;;;;;;;8.00;100.00;100271.47;10299454;28;20102;-70
2023/03/26 10:23:28;;;;;;;18.08;5.57;;;;;;;7.90;100.00;100262.78;10295221;28;20048;-71
2023/03/26 10:28:41;;;;;;;21.52;6.28;;;;;;;9.18;100.00;100267.44;10302533;28;20135;-71
2023/03/26 10:34:09;;;;;;;17.83;6.30;;;;;;;8.52;100.00;100257.34;10300108;28;20068;-71
2023/03/26 10:39:47;;;;;;;12.43;5.65;;;;;;;8.06;100.00;100266.72;10306373;28;20048;-71
2023/03/26 10:45:29;;;;;;;16.23;6.32;;;;;;;7.54;100.00;100269.91;10285113;28;20083;-71
2023/03/26 10:50:45;;;;;;;17.90;6.43;;;;;;;9.20;100.00;100266.00;10285038;28;20067;-71
2023/03/26 10:55:51;;;;;;;21.30;6.00;;;;;;;8.70;100.00;100266.38;10305028;28;20123;-71
2023/03/26 11:00:55;;;;;;;20.65;6.32;;;;;;;8.47;100.00;100268.41;10300564;28;20498;-72
2023/03/26 11:05:58;;;;;;;20.65;5.68;;;;;;;8.90;100.00;100275.09;10301517;28;20063;-72
2023/03/26 11:10:58;;;;;;;16.67;5.93;;;;;;;9.23;100.00;100259.91;10294688;28;20049;-72
2023/03/26 11:16:08;;;;;;;16.35;5.05;;;;;;;9.58;100.00;100275.47;10296801;28;20080;-72
2023/03/26 11:21:13;;;;;;;16.70;5.97;;;;;;;9.70;100.00;100259.28;10300281;28;20432;-73
2023/03/26 11:26:27;;;;;;;15.00;6.38;;;;;;;8.87;100.00;100259.38;10294636;28;20131;-72
2023/03/26 11:31:36;;;;;;;12.80;5.72;;;;;;;8.99;100.00;100268.53;10295216;28;20450;-73
2023/03/26 11:36:39;;;;;;;15.63;5.80;;;;;;;9.69;100.00;100265.84;10286766;28;20044;-71
2023/03/26 11:41:36;;;;;;;18.58;5.35;;;;;;;10.43;100.00;100263.94;10286616;28;20123;-72
2023/03/26 11:46:38;;;;;;;17.77;7.50;;;;;;;11.29;100.00;100259.09;10285983;28;20550;-70
2023/03/26 11:51:36;;;;;;;13.32;7.40;;;;;;;11.93;100.00;100264.19;10282354;28;20043;-71
2023/03/26 11:56:52;;;;;;;16.20;6.40;;;;;;;11.43;100.00;100267.84;10291082;28;20102;-71
2023/03/26 12:02:04;;;;;;;12.35;6.65;;;;;;;13.23;89.77;100258.97;10287686;28;20051;-73
2023/03/26 12:07:30;;;;;;;14.18;6.03;;;;;;;13.01;91.75;100256.72;10296620;28;20068;-73
2023/03/26 12:12:38;;;;;;;18.17;6.45;;;;;;;12.98;87.91;100257.44;10294598;28;20049;-74
2023/03/26 12:17:36;;;;;;;14.40;5.45;;;;;;;13.54;82.82;100257.53;10288010;28;20049;-71
2023/03/26 12:22:36;;;;;;;11.18;5.35;;;;;;;13.48;86.26;100253.44;10292677;28;20040;-71
2023/03/26 12:27:32;;;;;;;12.43;6.30;;;;;;;14.40;81.75;100243.31;10288591;28;20037;-71
2023/03/26 12:32:32;;;;;;;12.80;5.65;;;;;;;14.02;81.14;100247.47;10288862;28;20577;-71
2023/03/26 12:37:43;;;;;;;14.80;6.10;;;;;;;14.12;73.33;100248.13;10289763;28;20041;-70
2023/03/26 12:42:41;;;;;;;16.35;6.10;;;;;;;15.63;70.61;100242.16;10297302;28;20599;-71
2023/03/26 12:47:59;;;;;;;12.15;5.85;;;;;;;15.39;74.08;100231.41;10304306;28;20648;-71
2023/03/26 12:53:03;;;;;;;;;;;;;;;14.32;80.00;100258.88;10290270;28;20494;-71
2023/03/26 12:58:37;;;;;;;17.52;6.80;;;;;;;16.22;76.97;100242.06;10297320;28;19920;-72
2023/03/26 13:03:33;;;;;;;12.15;5.97;;;;;;;16.53;63.55;100250.09;10267004;28;20422;-71
2023/03/26 13:08:45;;;;;;;9.75;5.55;;;;;;;17.44;55.95;100245.50;10281976;28;20059;-71
2023/03/26 13:13:55;;;;;;;9.60;5.43;;;;;;;16.90;63.65;100240.44;10286770;28;20636;-71
2023/03/26 13:18:57;;;;;;;14.43;5.82;;;;;;;16.69;56.99;100236.16;10287862;28;20491;-70
2023/03/26 13:24:14;;;;;;;13.00;5.38;;;;;;;18.38;48.55;100238.19;10293944;28;20124;-71
2023/03/26 13:29:34;;;;;;;12.13;5.80;;;;;;;17.76;56.62;100236.78;10290040;28;20116;-71
2023/03/26 13:34:52;;;;;;;13.45;6.57;;;;;;;17.34;58.69;100243.41;10304494;28;20067;-71
2023/03/26 13:39:56;;;;;;;11.45;6.13;;;;;;;16.77;53.79;100242.56;10310108;28;20461;-70
2023/03/26 13:45:03;;;;;;;14.02;5.68;;;;;;;15.23;56.58;100240.56;10297034;28;20681;-70
2023/03/26 13:50:13;;;;;;;9.38;5.55;;;;;;;14.94;65.56;100237.19;10295559;28;20682;-70
2023/03/26 13:55:17;;;;;;;9.73;5.47;;;;;;;14.08;67.09;100243.31;10289489;28;20090;-70
2023/03/26 14:00:20;;;;;;;17.52;5.60;;;;;;;14.59;66.38;100241.84;10288969;28;20866;-71
2023/03/26 14:05:24;;;;;;;14.23;4.72;;;;;;;13.38;70.09;100248.44;10294089;28;20044;-71
2023/03/26 14:10:26;;;;;;;7.82;4.72;;;;;;;13.56;75.06;100249.75;10291957;28;20049;-71
2023/03/26 14:15:31;;;;;;;14.23;5.32;;;;;;;13.84;72.91;100244.25;10300622;28;20478;-71
2023/03/26 14:20:55;;;;;;;12.13;5.25;;;;;;;13.47;69.95;100251.84;10303422;28;20127;-71
2023/03/26 14:26:29;;;;;;;6.20;4.60;;;;;;;11.51;82.07;100250.53;10301992;28;20579;-71
2023/03/26 14:31:31;;;;;;;11.68;5.40;;;;;;;14.51;73.28;100247.16;10282518;28;20119;-70
2023/03/26 14:36:31;;;;;;;;;;;;;;;13.95;69.22;100252.78;10294514;28;20059;-70
2023/03/26 14:41:50;;;;;;;8.88;5.03;;;;;;;14.44;67.06;100252.47;10294267;28;20377;-70
2023/03/26 14:46:49;;;;;;;15.40;5.72;;;;;;;12.74;73.85;100253.56;10304407;28;20414;-72
2023/03/26 14:52:12;;;;;;;11.40;5.43;;;;;;;14.64;69.72;100238.81;10309990;28;20060;-73
2023/03/26 14:57:31;;;;;;;11.73;5.13;;;;;;;14.67;68.46;100249.91;10294978;28;20648;-73
2023/03/26 15:03:06;;;;;;;13.30;5.65;;;;;;;14.41;69.46;100239.44;10302809;28;20067;-74
2023/03/26 15:08:34;;;;;;;16.33;5.93;;;;;;;13.34;77.54;100247.53;10291211;28;20056;-72
2023/03/26 15:13:53;;;;;;;17.83;5.05;;;;;;;11.63;85.79;100248.97;10297939;28;20052;-73
2023/03/26 15:19:25;;;;;;;16.08;4.93;;;;;;;11.86;83.59;100252.97;10300328;28;20040;-72
2023/03/26 15:24:43;;;;;;;11.13;5.60;;;;;;;11.78;85.20;100246.41;10310479;28;20082;-72
2023/03/26 15:30:14;;;;;;;14.13;5.15;;;;;;;11.19;89.67;100254.03;10316266;28;20513;-71
2023/03/26 15:35:29;;;;;;;11.52;5.43;;;;;;;11.51;93.28;100256.03;10288850;28;20494;-71
2023/03/26 15:40:50;;;;;;;14.10;5.85;;;;;;;12.40;83.31;100261.09;10301586;28;20478;-72
2023/03/26 15:45:56;;;;;;;17.00;6.40;;;;;;;13.06;75.00;100264.72;10303003;28;20090;-72
2023/03/26 15:51:05;;;;;;;15.05;6.72;;;;;;;12.94;72.47;100270.22;10283497;28;20045;-72
2023/03/26 15:56:39;;;;;;;11.48;5.85;;;;;;;12.67;73.62;100264.31;10301425;28;20059;-71
2023/03/26 16:02:01;;;;;;;;;;;;;;;11.85;76.01;100267.78;10305010;28;20051;-72
2023/03/26 16:07:37;;;;;;;10.73;5.38;;;;;;;12.68;73.70;100265.91;10306913;28;20015;-72
2023/03/26 16:13:15;;;;;;;11.18;5.28;;;;;;;12.76;75.02;100278.69;10308891;28;20571;-71
2023/03/26 16:18:15;;;;;;;14.65;6.13;;;;;;;13.70;69.58;100270.53;10272876;28;20045;-72
2023/03/26 16:23:44;;;;;;;10.68;5.60;;;;;;;12.94;72.39;100278.47;10321237;28;20132;-72
2023/03/26 16:28:43;;;;;;;14.45;5.88;;;;;;;12.05;73.57;100287.28;10280402;28;20098;-71
2023/03/26 16:33:58;;;;;;;12.30;5.78;;;;;;;11.25;81.65;100293.72;10310168;28;20403;-72
2023/03/26 16:38:57;;;;;;;13.98;6.07;;;;;;;10.93;88.65;100287.78;10300406;28;20071;-68
2023/03/26 16:44:12;;;;;;;9.88;4.90;;;;;;;10.95;86.75;100296.47;10301586;28;20049;-70
2023/03/26 16:49:11;;;;;;;10.85;5.97;;;;;;;10.95;86.75;100296.47;10313278;28;20068;-71
2023/03/26 16:54:21;;;;;;;10.88;5.55;;;;;;;10.26;88.88;100305.75;10291461;28;20048;-70
2023/03/26 17:00:06;;;;;;;12.05;5.13;;;;;;;9.53;96.27;100319.31;10291254;28;20738;-70
2023/03/26 17:05:18;;;;;;;12.70;6.25;;;;;;;9.17;100.00;100323.13;10283271;28;20060;-69
2023/03/26 17:10:55;;;;;;;10.60;5.35;;;;;;;9.59;100.00;100332.47;10303180;28;20048;-71
2023/03/26 17:15:59;;;;;;;10.60;5.57;;;;;;;9.30;100.00;100332.28;10300297;28;20051;-71
2023/03/26 17:20:58;;;;;;;9.90;4.80;;;;;;;9.11;100.00;100335.31;10311942;28;20047;-71
2023/03/26 17:26:20;;;;;;;11.50;6.05;;;;;;;8.85;100.00;100350.44;10286292;28;20048;-71
2023/03/26 17:31:39;;;;;;;7.40;4.75;;;;;;;8.56;100.00;100350.97;10279106;28;20139;-72
2023/03/26 17:36:40;;;;;;;14.02;4.60;;;;;;;8.34;100.00;100357.22;10296583;28;20091;-72
2023/03/26 17:41:54;;;;;;;9.93;5.10;;;;;;;8.31;100.00;100362.47;10299762;28;20051;-72
2023/03/26 17:46:54;;;;;;;11.60;5.53;;;;;;;8.18;100.00;100370.41;10294838;28;20037;-73
2023/03/26 17:52:16;;;;;;;9.35;5.40;;;;;;;8.08;100.00;100376.13;10290596;28;20090;-72
2023/03/26 17:57:20;;;;;;;15.43;6.05;;;;;;;8.21;100.00;100383.44;10295626;28;20147;-72
2023/03/26 18:02:26;;;;;;;10.68;5.90;;;;;;;7.69;100.00;100387.66;10296241;28;20049;-72
2023/03/26 18:07:44;;;;;;;9.55;5.10;;;;;;;7.29;100.00;100393.66;10301796;28;20053;-72
2023/03/26 18:12:50;;;;;;;8.07;5.20;;;;;;;7.40;100.00;100394.25;10295917;28;20041;-74
2023/03/26 18:17:47;;;;;;;6.57;4.93;;;;;;;7.00;100.00;100406.75;10296546;28;20495;-72
2023/03/26 18:22:45;;;;;;;6.85;5.25;;;;;;;6.84;100.00;100408.94;10305473;28;20052;-71
2023/03/26 18:27:41;;;;;;;8.45;5.88;;;;;;;6.94;100.00;100414.22;10295457;28;20051;-73
2023/03/26 18:32:49;;;;;;;9.13;5.20;;;;;;;6.80;100.00;100425.06;10295887;28;20128;-72
2023/03/26 18:37:49;;;;;;;9.07;5.75;;;;;;;6.59;100.00;100431.94;10305758;28;20041;-72
2023/03/26 18:42:57;;;;;;;7.70;4.95;;;;;;;6.73;100.00;100447.19;10296887;28;20109;-72
2023/03/26 18:47:57;;;;;;;14.15;5.05;;;;;;;6.61;100.00;100448.75;10298302;28;20053;-72
2023/03/26 18:52:57;;;;;;;6.20;4.65;;;;;;;6.52;100.00;100452.16;10290933;28;21239;-72
2023/03/26 18:57:55;;;;;;;8.55;4.97;;;;;;;6.61;100.00;100456.91;10300159;28;20063;-72
2023/03/26 19:03:22;;;;;;;7.75;5.13;;;;;;;6.33;100.00;100470.38;10299937;28;20052;-72
2023/03/26 19:08:22;;;;;;;6.35;4.20;;;;;;;6.15;100.00;100484.75;10314244;28;20048;-73
2023/03/26 19:13:19;;;;;;;9.15;4.53;;;;;;;5.90;100.00;100486.72;10298392;28;20274;-71
2023/03/26 19:18:19;;;;;;;4.50;4.10;;;;;;;5.80;100.00;100487.66;10297813;28;20136;-72
2023/03/26 19:23:27;;;;;;;6.72;3.85;;;;;;;5.56;100.00;100489.59;10297003;28;20056;-72
2023/03/26 19:28:35;;;;;;;5.00;4.20;;;;;;;5.41;100.00;100488.69;10300615;28;20737;-72
2023/03/26 19:33:35;;;;;;;4.20;3.58;;;;;;;5.29;100.00;100509.94;10299922;28;20073;-71
2023/03/26 19:38:50;;;;;;;5.85;3.60;;;;;;;5.34;100.00;100519.91;10294034;28;20483;-72
2023/03/26 19:43:56;;;;;;;5.10;4.47;;;;;;;5.21;100.00;100519.50;10302209;28;20071;-72
2023/03/26 19:48:55;;;;;;;5.38;4.00;;;;;;;5.10;100.00;100525.31;10304358;28;20064;-71
2023/03/26 19:53:57;;;;;;;5.30;4.10;;;;;;;4.97;100.00;100537.66;10308873;28;20078;-71
2023/03/26 19:58:54;;;;;;;4.82;4.10;;;;;;;5.17;100.00;100542.84;10299207;28;20044;-73
2023/03/26 20:03:56;;;;;;;4.45;3.80;;;;;;;4.96;100.00;100547.66;10300867;28;20060;-72
2023/03/26 20:08:54;;;;;;;4.32;3.90;;;;;;;4.97;100.00;100553.91;10303565;28;20429;-73
2023/03/26 20:13:51;;;;;;;7.68;3.67;;;;;;;4.98;100.00;100566.34;10296642;28;20465;-77
2023/03/26 20:18:49;;;;;;;5.43;3.85;;;;;;;4.73;100.00;100561.94;10309879;28;20033;-77
2023/03/26 20:23:46;;;;;;;4.18;3.78;;;;;;;4.68;100.00;100573.63;10312219;28;20072;-78
2023/03/26 20:28:42;;;;;;;6.28;3.95;;;;;;;4.72;100.00;100580.09;10300363;28;20076;-78
2023/03/26 20:33:45;;;;;;;6.57;4.07;;;;;;;4.54;100.00;100583.47;10303879;28;20045;-77
2023/03/26 20:38:42;;;;;;;8.57;3.88;;;;;;;4.44;100.00;100595.16;10302677;28;20465;-73
2023/03/26 20:43:42;;;;;;;4.85;3.90;;;;;;;4.50;100.00;100602.16;10302791;28;20105;-73
2023/03/26 20:48:38;;;;;;;4.10;3.58;;;;;;;4.30;100.00;100605.00;10302122;28;20552;-73
2023/03/26 20:53:36;;;;;;;7.15;4.53;;;;;;;4.12;100.00;100615.34;10304022;28;20140;-73
2023/03/26 20:58:32;;;;;;;4.78;3.47;;;;;;;4.04;100.00;100612.41;10297766;28;20258;-74
2023/03/26 21:03:29;;;;;;;6.13;3.70;;;;;;;3.96;100.00;100617.28;10308636;28;20164;-74
2023/03/26 21:08:28;;;;;;;6.82;3.80;;;;;;;3.80;100.00;100623.84;10311010;28;20127;-74
2023/03/26 21:13:38;;;;;;;7.22;3.40;;;;;;;3.64;100.00;100633.06;10300396;28;20066;-76
2023/03/26 21:18:35;;;;;;;6.13;3.50;;;;;;;3.60;100.00;100640.94;10311575;28;20573;-76
2023/03/26 21:23:43;;;;;;;7.70;3.85;;;;;;;3.46;100.00;100651.50;10306537;28;20106;-76
2023/03/26 21:28:48;;;;;;;5.45;3.40;;;;;;;3.34;100.00;100650.94;10297298;28;20041;-77
2023/03/26 21:33:46;;;;;;;9.38;4.10;;;;;;;3.31;100.00;100655.00;10308698;28;20410;-77
2023/03/26 21:38:43;;;;;;;6.18;3.33;;;;;;;3.31;100.00;100665.81;10289890;28;20709;-76
2023/03/26 21:43:40;;;;;;;10.50;3.97;;;;;;;3.24;100.00;100675.28;10307943;28;20051;-76
2023/03/26 21:48:36;;;;;;;5.63;3.60;;;;;;;3.08;100.00;100669.03;10304879;28;20079;-80
2023/03/26 21:53:34;;;;;;;6.80;4.00;;;;;;;2.95;100.00;100681.19;10309226;28;20694;-81
2023/03/26 21:58:43;;;;;;;6.40;3.50;;;;;;;2.73;100.00;100687.59;10302552;28;20083;-73
2023/03/26 22:03:53;;;;;;;8.98;3.72;;;;;;;2.69;100.00;100705.44;10320716;28;20131;-77
2023/03/26 22:08:50;;;;;;;6.85;3.67;;;;;;;2.70;100.00;100704.34;10297902;28;20045;-74
2023/03/26 22:13:46;;;;;;;6.53;3.60;;;;;;;2.65;100.00;100707.03;10299110;28;20040;-74
2023/03/26 22:18:43;;;;;;;6.55;3.83;;;;;;;2.51;100.00;100705.91;10296433;28;20143;-74
2023/03/26 22:23:39;;;;;;;4.68;3.63;;;;;;;2.41;100.00;100722.06;10299439;28;20148;-73
2023/03/26 22:28:36;;;;;;;3.97;3.30;;;;;;;2.31;100.00;100726.31;10307315;28;20802;-74
2023/03/26 22:33:34;;;;;;;8.48;3.83;;;;;;;2.33;100.00;100736.06;10298010;28;20044;-76
2023/03/26 22:38:31;;;;;;;6.38;3.30;;;;;;;2.39;100.00;100751.19;10296339;28;20067;-74
2023/03/26 22:43:28;;;;;;;9.77;3.70;;;;;;;2.39;100.00;100761.97;10312364;28;20418;-74
2023/03/26 22:48:25;;;;;;;7.28;3.70;;;;;;;2.17;100.00;100770.22;10298307;28;20072;-74
2023/03/26 22:53:22;;;;;;;9.43;3.33;;;;;;;2.05;100.00;100778.50;10298066;28;20040;-79
2023/03/26 22:58:18;;;;;;;7.38;3.40;;;;;;;2.15;100.00;100778.56;10311847;28;20058;-77
2023/03/26 23:03:15;;;;;;;5.50;3.20;;;;;;;1.95;100.00;100790.03;10293716;28;20072;-78
2023/03/26 23:08:11;;;;;;;8.73;3.60;;;;;;;2.00;100.00;100798.16;10297447;28;20045;-80
2023/03/26 23:13:08;;;;;;;8.65;3.55;;;;;;;1.88;100.00;100790.25;10299668;28;20048;-74
2023/03/26 23:18:05;;;;;;;8.02;3.20;;;;;;;1.90;100.00;100798.06;10304977;28;20044;-74